首页
METAR-TAF:

METAR-TAF

机场 :

科爾達, 塞内加尔

纬度: 12-53N, 经度: 014-58W, 海拔: 10米

当前天气观测

该预报发布于56分钟前的18:00 UTC
风速2节,风向多变
温度 42°C
湿度 21%
气压 1004 hPa
能见度10公里或以上
1500米以下无云,无积雨云

METAR: GOGK 101800Z VRB02KT CAVOK 42/15 Q1004

时间: 18:56 (18:56 UTC)


TAF: 丢失

超过4000个机场的气象观测和天气预报(METAR&TAF报告)。

可查询的气象台以黄色和红色小点在地图上表示。

将鼠标移到小点上方,可查看气象台名称。

然后点击查看天气观测和预报。

如需切换地图:点击带黑十字的绿色按钮放大地图;点击带横线的绿色按钮缩小地图;或者点击绿色箭头查看邻近地区的地图。


METAR-TAF: